North Waltham, MA

4:36 PM EDT on September 04, 2015 (GMT -0400)
Weston | | Change Station
CLOSE
Current Station
Personal Weather Station
Location: Weston, MA
Elevation: 154 ft
Nearby Weather Stations

Elev 154 ft 42.38 °N, 71.29 °W | Updated 18 seconds ago

Partly Cloudy
Partly Cloudy
72.1 °F
Feels Like 74 °F
N
1.9
Wind Variable Wind from ESE
Gusts 1412.0 mph

Today
High -- | Low -- °F
--% Chance of Precip.
Yesterday
High -- | Low -- °F
Precip. -- in
6:13 AM 7:14 PM
Waning Gibbous, 56% visible
Pressure 30.21 in
Visibility 10.0 miles
Clouds Scattered Clouds 2900 ft
Heat Index 74 °F
Dew Point 62 °F
Humidity 71%
Rainfall 0.03 in
Snow Depth Not available.
UV 3 out of 12
Pollen 8.50 out of 12
Air Quality Not available.
Flu Activity Not available.
METAR KBED 041956Z 08007G15KT 10SM SCT029 22/13 A3018 RMK AO2 SLP230 T02170133
Pressure 30.21 in
Visibility 10.0 miles
Clouds Scattered Clouds 2900 ft
Heat Index 74 °F
Dew Point 62 °F
Humidity 71%
Rainfall 0.03 in
Snow Depth Not available.
UV 3 out of 12
Pollen 8.50 out of 12
Air Quality Not available.
Flu Activity Not available.
METAR KBED 041956Z 08007G15KT 10SM SCT029 22/13 A3018 RMK AO2 SLP230 T02170133

10-Day Weather Forecast

×

Almanac

Astronomy

Sep. 04, 2015 Rise Set
Actual Time
Civil Twilight
Nautical Twilight
Astronomical Twilight
Moon
Length of Visible Light
Length of Day
Tomorrow will be .
, % of the Moon is Illuminated

Today's Extremes

State Highs State Lows

Community

WunderPhotos

Upload Photos

1,852,283 photos uploaded!

WunderBlogs® & News

Nearby

Air Quality

  Air Quality AQ Index Pollutant
Not available.

Snow Depth

Station Depth Elevation

Earthquake Activity

City Distance Mag. Time & Date
Minimum magnitude displayed is 2.5.

Coastal Water Temperatures

Place Temperature

Stations

Nearby Weather Stations

Station Location Temp. Windchill Dew Point Humidity Wind Precip. Elev Updated Type